Time,TemperatureF,DewpointF,PressureIn,WindDirection,WindDirectionDegrees,WindSpeedMPH,WindSpeedGustMPH,Humidity,HourlyPrecipIn,Conditions,Clouds,dailyrainin,SolarRadiationWatts/m^2,SoftwareType,DateUTC
2013-06-25 00:33:00,69.0,46.0,-100.00,South,178,3.0,11.0,44,0.00,,,0.00,0.000000,,2013-06-25 06:33:00,
2013-06-25 00:43:00,69.0,46.0,-100.00,South,178,3.0,11.0,44,0.00,,,0.00,0.000000,,2013-06-25 06:43:00,
2013-06-25 00:52:00,69.0,46.0,-100.00,South,178,3.0,11.0,44,0.00,,,0.00,0.000000,,2013-06-25 06:52:00,
2013-06-25 01:33:00,68.0,50.0,-100.00,NNW,348,6.0,12.0,52,0.00,,,0.00,0.000000,,2013-06-25 07:33:00,
2013-06-25 01:43:00,68.0,50.0,-100.00,NNW,348,6.0,12.0,52,0.00,,,0.00,0.000000,,2013-06-25 07:43:00,
2013-06-25 01:52:00,68.0,50.0,-100.00,NNW,348,6.0,12.0,52,0.00,,,0.00,0.000000,,2013-06-25 07:52:00,
2013-06-25 02:34:00,66.0,48.0,-100.00,NNW,333,3.0,13.0,53,0.00,,,0.00,0.000000,,2013-06-25 08:34:00,
2013-06-25 02:43:00,66.0,48.0,-100.00,NNW,333,3.0,13.0,53,0.00,,,0.00,0.000000,,2013-06-25 08:43:00,
2013-06-25 02:52:00,66.0,48.0,-100.00,NNW,333,3.0,13.0,53,0.00,,,0.00,0.000000,,2013-06-25 08:52:00,
2013-06-25 03:33:00,64.0,48.0,-100.00,West,270,2.0,6.0,57,0.00,,,0.00,0.000000,,2013-06-25 09:33:00,
2013-06-25 03:43:00,64.0,48.0,-100.00,West,270,2.0,6.0,57,0.00,,,0.00,0.000000,,2013-06-25 09:43:00,
2013-06-25 03:52:00,64.0,48.0,-100.00,West,270,2.0,6.0,57,0.00,,,0.00,0.000000,,2013-06-25 09:52:00,
2013-06-25 04:33:00,63.0,50.0,-100.00,ESE,102,1.0,4.0,63,0.00,,,0.00,0.000000,,2013-06-25 10:33:00,
2013-06-25 04:42:00,63.0,50.0,-100.00,ESE,102,1.0,4.0,63,0.00,,,0.00,0.000000,,2013-06-25 10:42:00,
2013-06-25 04:52:00,63.0,50.0,-100.00,ESE,102,1.0,4.0,63,0.00,,,0.00,0.000000,,2013-06-25 10:52:00,
2013-06-25 05:34:00,62.0,51.0,-100.00,NNE,12,4.0,6.0,68,0.00,,,0.00,0.000000,,2013-06-25 11:34:00,
2013-06-25 05:43:00,62.0,51.0,-100.00,NNE,12,4.0,6.0,68,0.00,,,0.00,0.000000,,2013-06-25 11:43:00,
2013-06-25 05:52:00,62.0,51.0,-100.00,NNE,12,4.0,6.0,68,0.00,,,0.00,0.000000,,2013-06-25 11:52:00,
2013-06-25 06:33:00,61.0,55.0,-100.00,NW,319,3.0,7.0,82,0.00,,,0.00,2.000000,,2013-06-25 12:33:00,
2013-06-25 06:43:00,61.0,55.0,-100.00,NW,319,3.0,7.0,82,0.00,,,0.00,2.000000,,2013-06-25 12:43:00,
2013-06-25 06:55:00,61.0,55.0,-100.00,NW,319,3.0,7.0,82,0.00,,,0.00,2.000000,,2013-06-25 12:55:00,
2013-06-25 07:34:00,62.0,59.0,-100.00,SSE,150,4.0,5.0,90,0.00,,,0.00,71.000000,,2013-06-25 13:34:00,
2013-06-25 07:42:00,62.0,59.0,-100.00,SSE,150,4.0,5.0,90,0.00,,,0.00,71.000000,,2013-06-25 13:42:00,
2013-06-25 07:53:00,62.0,59.0,-100.00,SSE,150,4.0,5.0,90,0.00,,,0.00,71.000000,,2013-06-25 13:53:00,
2013-06-25 08:34:00,63.0,59.0,-100.00,SSE,156,7.0,9.0,88,0.00,,,0.00,87.000000,,2013-06-25 14:34:00,
2013-06-25 08:43:00,63.0,59.0,-100.00,SSE,156,7.0,9.0,88,0.00,,,0.00,87.000000,,2013-06-25 14:43:00,
2013-06-25 08:53:00,63.0,59.0,-100.00,SSE,156,7.0,9.0,88,0.00,,,0.00,87.000000,,2013-06-25 14:53:00,
2013-06-25 10:35:00,74.0,56.0,-100.00,West,264,9.0,14.0,53,0.00,,,0.00,600.000000,,2013-06-25 16:35:00,
2013-06-25 10:44:00,74.0,56.0,-100.00,West,264,9.0,14.0,53,0.00,,,0.00,600.000000,,2013-06-25 16:44:00,
2013-06-25 10:52:00,74.0,56.0,-100.00,West,264,9.0,14.0,53,0.00,,,0.00,600.000000,,2013-06-25 16:52:00,
2013-06-25 11:22:00,77.0,54.0,-100.00,NW,323,7.0,16.0,45,0.00,,,0.00,789.000000,,2013-06-25 17:22:00,
2013-06-25 11:33:00,77.0,54.0,-100.00,NW,323,7.0,16.0,45,0.00,,,0.00,789.000000,,2013-06-25 17:33:00,
2013-06-25 11:44:00,77.0,54.0,-100.00,NW,323,7.0,16.0,45,0.00,,,0.00,789.000000,,2013-06-25 17:44:00,
2013-06-25 11:53:00,77.0,54.0,-100.00,NW,323,7.0,16.0,45,0.00,,,0.00,789.000000,,2013-06-25 17:53:00,
2013-06-25 12:34:00,79.0,53.0,-100.00,NW,304,8.0,17.0,40,0.00,,,0.00,864.000000,,2013-06-25 18:34:00,
2013-06-25 12:44:00,79.0,53.0,-100.00,NW,304,8.0,17.0,40,0.00,,,0.00,864.000000,,2013-06-25 18:44:00,
2013-06-25 12:52:00,79.0,53.0,-100.00,NW,304,8.0,17.0,40,0.00,,,0.00,864.000000,,2013-06-25 18:52:00,
2013-06-25 13:33:00,81.0,50.0,-100.00,WNW,295,8.0,15.0,34,0.00,,,0.00,917.000000,,2013-06-25 19:33:00,
2013-06-25 13:44:00,81.0,50.0,-100.00,WNW,295,8.0,15.0,34,0.00,,,0.00,917.000000,,2013-06-25 19:44:00,
2013-06-25 13:53:00,81.0,50.0,-100.00,WNW,295,8.0,15.0,34,0.00,,,0.00,917.000000,,2013-06-25 19:53:00,
2013-06-25 14:33:00,78.0,48.0,-100.00,WNW,299,5.0,19.0,35,0.00,,,0.00,468.000000,,2013-06-25 20:33:00,
2013-06-25 14:42:00,78.0,48.0,-100.00,WNW,299,5.0,19.0,35,0.00,,,0.00,468.000000,,2013-06-25 20:42:00,
2013-06-25 14:52:00,78.0,48.0,-100.00,WNW,299,5.0,19.0,35,0.00,,,0.00,468.000000,,2013-06-25 20:52:00,
2013-06-25 15:34:00,83.0,47.0,-100.00,WSW,254,8.0,12.0,29,0.00,,,0.00,848.000000,,2013-06-25 21:34:00,
2013-06-25 15:43:00,83.0,47.0,-100.00,WSW,254,8.0,12.0,29,0.00,,,0.00,848.000000,,2013-06-25 21:43:00,
2013-06-25 15:53:00,83.0,47.0,-100.00,WSW,254,8.0,12.0,29,0.00,,,0.00,848.000000,,2013-06-25 21:53:00,
2013-06-25 16:34:00,85.0,48.0,-100.00,NW,305,6.0,14.0,28,0.00,,,0.00,825.000000,,2013-06-25 22:34:00,
2013-06-25 16:42:00,85.0,48.0,-100.00,NW,305,6.0,14.0,28,0.00,,,0.00,825.000000,,2013-06-25 22:42:00,
2013-06-25 16:52:00,85.0,48.0,-100.00,NW,305,6.0,14.0,28,0.00,,,0.00,825.000000,,2013-06-25 22:52:00,
2013-06-25 17:34:00,85.0,48.0,-100.00,South,169,4.0,8.0,28,0.00,,,0.00,697.000000,,2013-06-25 23:34:00,
2013-06-25 17:43:00,85.0,48.0,-100.00,South,169,4.0,8.0,28,0.00,,,0.00,697.000000,,2013-06-25 23:43:00,
2013-06-25 17:52:00,85.0,48.0,-100.00,South,169,4.0,8.0,28,0.00,,,0.00,697.000000,,2013-06-25 23:52:00,
2013-06-25 18:33:00,85.0,49.0,-100.00,SW,224,6.0,10.0,29,0.00,,,0.00,524.000000,,2013-06-26 00:33:00,
2013-06-25 18:42:00,85.0,49.0,-100.00,SW,224,6.0,10.0,29,0.00,,,0.00,524.000000,,2013-06-26 00:42:00,
2013-06-25 18:52:00,85.0,49.0,-100.00,SW,224,6.0,10.0,29,0.00,,,0.00,524.000000,,2013-06-26 00:52:00,
2013-06-25 19:33:00,83.0,47.0,-100.00,South,177,5.0,10.0,29,0.00,,,0.00,341.000000,,2013-06-26 01:33:00,
2013-06-25 19:43:00,83.0,47.0,-100.00,South,177,5.0,10.0,29,0.00,,,0.00,341.000000,,2013-06-26 01:43:00,
2013-06-25 19:53:00,83.0,47.0,-100.00,South,177,5.0,10.0,29,0.00,,,0.00,341.000000,,2013-06-26 01:53:00,
2013-06-25 20:34:00,81.0,48.0,-100.00,South,176,5.0,8.0,32,0.00,,,0.00,179.000000,,2013-06-26 02:34:00,
2013-06-25 20:43:00,81.0,48.0,-100.00,South,176,5.0,8.0,32,0.00,,,0.00,179.000000,,2013-06-26 02:43:00,
2013-06-25 20:53:00,81.0,48.0,-100.00,South,176,5.0,8.0,32,0.00,,,0.00,179.000000,,2013-06-26 02:53:00,
2013-06-25 21:33:00,75.0,51.0,-100.00,SSE,148,4.0,6.0,43,0.00,,,0.00,36.000000,,2013-06-26 03:33:00,
2013-06-25 21:43:00,75.0,51.0,-100.00,SSE,148,4.0,6.0,43,0.00,,,0.00,36.000000,,2013-06-26 03:43:00,
2013-06-25 21:52:00,75.0,51.0,-100.00,SSE,148,4.0,6.0,43,0.00,,,0.00,36.000000,,2013-06-26 03:52:00,
2013-06-25 22:33:00,70.0,51.0,-100.00,ESE,120,6.0,7.0,51,0.00,,,0.00,1.000000,,2013-06-26 04:33:00,
2013-06-25 22:43:00,70.0,51.0,-100.00,ESE,120,6.0,7.0,51,0.00,,,0.00,1.000000,,2013-06-26 04:43:00,
2013-06-25 22:53:00,70.0,51.0,-100.00,ESE,120,6.0,7.0,51,0.00,,,0.00,1.000000,,2013-06-26 04:53:00,
2013-06-25 23:34:00,64.0,51.0,-100.00,SSE,151,6.0,7.0,63,0.00,,,0.00,0.000000,,2013-06-26 05:34:00,
2013-06-25 23:43:00,64.0,51.0,-100.00,SSE,151,6.0,7.0,63,0.00,,,0.00,0.000000,,2013-06-26 05:43:00,
2013-06-25 23:52:00,64.0,51.0,-100.00,SSE,151,6.0,7.0,63,0.00,,,0.00,0.000000,,2013-06-26 05:52:00,